Huvudsida
METAR-TAF:

METAR-TAF

Flygplatser :

Stockholm Skavsta Airport

Stockholm-Skavsta, Sverige

latitud: 58-47N, longitud: 016-55E, höjd: 43 m

Aktuellt väderrapport

Denna rapport gjordes för 53 minuter sedan, klockan 21:50 UTC
Vind 9 kt från väst/sydväst
Temperatur 13°C
Fuktighet 77%
Tryck 1012 hPa
Sikt 10 km eller mer
Inga moln under 1 500 m eller inga cumulonimbus

METAR: ESKN 202150Z 25009KT CAVOK 13/09 Q1012

Tid: 00:43 (22:43 UTC)

Väderprognos

Denna rapport gjordes för 2 timmar och 13 minuter sedan, klockan 20:30 UTC
Prognos gäller från 20 kl. 21 UTC till 21 kl. 21 UTC
Vind 9 kt från väst
Sikt 10 km eller mer
Inga moln under 1 500 m eller inga cumulonimbus
Blir
från 21 kl. 10 UTC till 21 kl. 12 UTC
Vind 10 kt från syd/sydost

TAF: ESKN 202030Z 2021/2121 26009KT CAVOK BECMG 2110/2112 15010KT

Aktuella väderrapporter och prognoser från 4000 flygplatser (METAR- och TAF-rapporter).

De tillgängliga stationerna syns som gula och röda prickar på kartan.

För musen över prickarna för att se namnen på stationerna.

Klicka sedan för att få väderrapporter och prognoser.

För att ändra kartan: Klicka på de gröna knapparna med ett svart kors på för att zooma in; den gröna knappen med ett streck på för att zooma ut; eller på de gröna pilarna för angränsande kartor.


METAR-TAF: